sensor_id;sensor_type;location;lat;lon;timestamp;P1;durP1;ratioP1;P2;durP2;ratioP2
7013;SDS011;3547;50.774;12.918;2024-03-08T00:00:43;19.03;;;11.93;;
7013;SDS011;3547;50.774;12.918;2024-03-08T00:03:09;17.77;;;11.53;;
7013;SDS011;3547;50.774;12.918;2024-03-08T00:05:36;18.63;;;11.47;;
7013;SDS011;3547;50.774;12.918;2024-03-08T00:08:07;18.47;;;11.43;;
7013;SDS011;3547;50.774;12.918;2024-03-08T00:10:35;18.50;;;12.03;;
7013;SDS011;3547;50.774;12.918;2024-03-08T00:13:01;19.60;;;11.63;;
7013;SDS011;3547;50.774;12.918;2024-03-08T00:15:29;20.90;;;12.70;;
7013;SDS011;3547;50.774;12.918;2024-03-08T00:17:57;18.13;;;11.63;;
7013;SDS011;3547;50.774;12.918;2024-03-08T00:20:23;20.20;;;13.03;;
7013;SDS011;3547;50.774;12.918;2024-03-08T00:22:50;20.43;;;12.63;;
7013;SDS011;3547;50.774;12.918;2024-03-08T00:25:16;22.77;;;13.53;;
7013;SDS011;3547;50.774;12.918;2024-03-08T00:27:44;19.67;;;13.00;;
7013;SDS011;3547;50.774;12.918;2024-03-08T00:30:10;20.43;;;12.57;;
7013;SDS011;3547;50.774;12.918;2024-03-08T00:32:38;20.53;;;12.97;;
7013;SDS011;3547;50.774;12.918;2024-03-08T00:35:04;19.53;;;12.07;;
7013;SDS011;3547;50.774;12.918;2024-03-08T00:37:42;20.00;;;13.43;;
7013;SDS011;3547;50.774;12.918;2024-03-08T00:40:12;22.47;;;12.40;;
7013;SDS011;3547;50.774;12.918;2024-03-08T00:42:38;23.60;;;13.50;;
7013;SDS011;3547;50.774;12.918;2024-03-08T00:45:06;25.07;;;14.10;;
7013;SDS011;3547;50.774;12.918;2024-03-08T00:47:33;24.27;;;12.87;;
7013;SDS011;3547;50.774;12.918;2024-03-08T00:49:59;17.77;;;10.67;;
7013;SDS011;3547;50.774;12.918;2024-03-08T00:52:29;23.50;;;14.47;;
7013;SDS011;3547;50.774;12.918;2024-03-08T00:54:55;23.83;;;14.17;;
7013;SDS011;3547;50.774;12.918;2024-03-08T00:57:22;20.63;;;13.17;;
7013;SDS011;3547;50.774;12.918;2024-03-08T00:59:48;19.60;;;13.17;;
7013;SDS011;3547;50.774;12.918;2024-03-08T01:02:14;25.93;;;14.73;;
7013;SDS011;3547;50.774;12.918;2024-03-08T01:04:42;22.00;;;14.20;;
7013;SDS011;3547;50.774;12.918;2024-03-08T01:07:08;23.13;;;13.50;;
7013;SDS011;3547;50.774;12.918;2024-03-08T01:09:34;24.23;;;13.97;;
7013;SDS011;3547;50.774;12.918;2024-03-08T01:12:06;22.97;;;14.33;;
7013;SDS011;3547;50.774;12.918;2024-03-08T01:14:32;24.27;;;13.20;;
7013;SDS011;3547;50.774;12.918;2024-03-08T01:16:59;23.77;;;14.13;;
7013;SDS011;3547;50.774;12.918;2024-03-08T01:19:25;22.40;;;14.13;;
7013;SDS011;3547;50.774;12.918;2024-03-08T01:21:51;28.70;;;14.43;;
7013;SDS011;3547;50.774;12.918;2024-03-08T01:24:17;23.10;;;13.33;;
7013;SDS011;3547;50.774;12.918;2024-03-08T01:26:43;23.00;;;14.17;;
7013;SDS011;3547;50.774;12.918;2024-03-08T01:29:10;21.07;;;12.97;;
7013;SDS011;3547;50.774;12.918;2024-03-08T01:31:36;25.03;;;14.93;;
7013;SDS011;3547;50.774;12.918;2024-03-08T01:34:02;22.90;;;13.67;;
7013;SDS011;3547;50.774;12.918;2024-03-08T01:36:28;20.83;;;13.97;;
7013;SDS011;3547;50.774;12.918;2024-03-08T01:38:54;23.90;;;14.40;;
7013;SDS011;3547;50.774;12.918;2024-03-08T01:41:20;29.13;;;14.70;;
7013;SDS011;3547;50.774;12.918;2024-03-08T01:43:46;26.17;;;14.80;;
7013;SDS011;3547;50.774;12.918;2024-03-08T01:46:14;24.67;;;12.83;;
7013;SDS011;3547;50.774;12.918;2024-03-08T01:48:44;28.97;;;14.37;;
7013;SDS011;3547;50.774;12.918;2024-03-08T01:51:11;24.73;;;13.97;;
7013;SDS011;3547;50.774;12.918;2024-03-08T01:53:37;26.03;;;14.90;;
7013;SDS011;3547;50.774;12.918;2024-03-08T01:56:04;26.03;;;14.53;;
7013;SDS011;3547;50.774;12.918;2024-03-08T01:58:31;24.60;;;14.23;;
7013;SDS011;3547;50.774;12.918;2024-03-08T02:00:58;20.77;;;13.47;;
7013;SDS011;3547;50.774;12.918;2024-03-08T02:03:25;25.17;;;14.27;;
7013;SDS011;3547;50.774;12.918;2024-03-08T02:05:51;25.07;;;14.47;;
7013;SDS011;3547;50.774;12.918;2024-03-08T02:08:18;23.03;;;13.63;;
7013;SDS011;3547;50.774;12.918;2024-03-08T02:10:48;26.90;;;13.90;;
7013;SDS011;3547;50.774;12.918;2024-03-08T02:13:15;25.63;;;13.97;;
7013;SDS011;3547;50.774;12.918;2024-03-08T02:15:53;22.87;;;12.87;;
7013;SDS011;3547;50.774;12.918;2024-03-08T02:18:26;21.37;;;13.17;;
7013;SDS011;3547;50.774;12.918;2024-03-08T02:20:56;19.80;;;12.50;;
7013;SDS011;3547;50.774;12.918;2024-03-08T02:23:28;24.30;;;13.97;;
7013;SDS011;3547;50.774;12.918;2024-03-08T02:25:55;24.60;;;14.17;;
7013;SDS011;3547;50.774;12.918;2024-03-08T02:28:22;23.17;;;13.80;;
7013;SDS011;3547;50.774;12.918;2024-03-08T02:30:50;23.23;;;14.07;;
7013;SDS011;3547;50.774;12.918;2024-03-08T02:33:20;27.20;;;14.30;;
7013;SDS011;3547;50.774;12.918;2024-03-08T02:35:47;23.77;;;13.93;;
7013;SDS011;3547;50.774;12.918;2024-03-08T02:38:14;26.47;;;14.57;;
7013;SDS011;3547;50.774;12.918;2024-03-08T02:40:42;22.53;;;13.67;;
7013;SDS011;3547;50.774;12.918;2024-03-08T02:43:09;20.87;;;14.10;;
7013;SDS011;3547;50.774;12.918;2024-03-08T02:45:36;22.83;;;14.10;;
7013;SDS011;3547;50.774;12.918;2024-03-08T02:48:02;25.67;;;14.07;;
7013;SDS011;3547;50.774;12.918;2024-03-08T02:50:29;27.87;;;15.27;;
7013;SDS011;3547;50.774;12.918;2024-03-08T02:52:58;25.43;;;13.83;;
7013;SDS011;3547;50.774;12.918;2024-03-08T02:55:24;23.67;;;14.07;;
7013;SDS011;3547;50.774;12.918;2024-03-08T02:58:15;21.87;;;12.70;;
7013;SDS011;3547;50.774;12.918;2024-03-08T03:00:43;23.50;;;14.33;;
7013;SDS011;3547;50.774;12.918;2024-03-08T03:03:11;22.07;;;14.23;;
7013;SDS011;3547;50.774;12.918;2024-03-08T03:05:40;26.77;;;14.13;;
7013;SDS011;3547;50.774;12.918;2024-03-08T03:08:13;24.03;;;13.37;;
7013;SDS011;3547;50.774;12.918;2024-03-08T03:10:41;22.97;;;13.20;;
7013;SDS011;3547;50.774;12.918;2024-03-08T03:13:07;24.40;;;13.20;;
7013;SDS011;3547;50.774;12.918;2024-03-08T03:15:34;22.30;;;14.57;;
7013;SDS011;3547;50.774;12.918;2024-03-08T03:18:00;23.57;;;13.60;;
7013;SDS011;3547;50.774;12.918;2024-03-08T03:20:26;26.40;;;13.60;;
7013;SDS011;3547;50.774;12.918;2024-03-08T03:22:58;24.40;;;13.53;;
7013;SDS011;3547;50.774;12.918;2024-03-08T03:25:27;25.20;;;14.90;;
7013;SDS011;3547;50.774;12.918;2024-03-08T03:27:59;19.80;;;13.30;;
7013;SDS011;3547;50.774;12.918;2024-03-08T03:30:25;26.90;;;13.87;;
7013;SDS011;3547;50.774;12.918;2024-03-08T03:32:52;25.30;;;14.47;;
7013;SDS011;3547;50.774;12.918;2024-03-08T03:35:20;23.23;;;13.20;;
7013;SDS011;3547;50.774;12.918;2024-03-08T03:37:47;22.47;;;13.67;;
7013;SDS011;3547;50.774;12.918;2024-03-08T03:40:51;20.53;;;12.50;;
7013;SDS011;3547;50.774;12.918;2024-03-08T03:43:21;25.57;;;14.40;;
7013;SDS011;3547;50.774;12.918;2024-03-08T03:45:47;22.90;;;14.23;;
7013;SDS011;3547;50.774;12.918;2024-03-08T03:48:14;21.47;;;13.57;;
7013;SDS011;3547;50.774;12.918;2024-03-08T03:50:40;21.70;;;13.03;;
7013;SDS011;3547;50.774;12.918;2024-03-08T03:53:06;25.80;;;14.37;;
7013;SDS011;3547;50.774;12.918;2024-03-08T03:55:34;22.47;;;14.10;;
7013;SDS011;3547;50.774;12.918;2024-03-08T03:58:00;24.17;;;14.30;;
7013;SDS011;3547;50.774;12.918;2024-03-08T04:00:27;30.53;;;13.97;;
7013;SDS011;3547;50.774;12.918;2024-03-08T04:02:53;19.47;;;12.97;;
7013;SDS011;3547;50.774;12.918;2024-03-08T04:05:20;24.47;;;13.00;;
7013;SDS011;3547;50.774;12.918;2024-03-08T04:07:46;22.73;;;13.43;;
7013;SDS011;3547;50.774;12.918;2024-03-08T04:10:12;22.80;;;14.07;;
7013;SDS011;3547;50.774;12.918;2024-03-08T04:12:38;24.53;;;14.07;;
7013;SDS011;3547;50.774;12.918;2024-03-08T04:15:05;22.27;;;12.87;;
7013;SDS011;3547;50.774;12.918;2024-03-08T04:17:34;23.73;;;13.30;;
7013;SDS011;3547;50.774;12.918;2024-03-08T04:20:03;24.80;;;14.53;;
7013;SDS011;3547;50.774;12.918;2024-03-08T04:22:35;23.77;;;13.70;;
7013;SDS011;3547;50.774;12.918;2024-03-08T04:25:03;22.47;;;12.40;;
7013;SDS011;3547;50.774;12.918;2024-03-08T04:27:29;21.90;;;13.10;;
7013;SDS011;3547;50.774;12.918;2024-03-08T04:29:55;20.10;;;13.30;;
7013;SDS011;3547;50.774;12.918;2024-03-08T04:32:22;22.37;;;12.73;;
7013;SDS011;3547;50.774;12.918;2024-03-08T04:34:48;22.47;;;13.23;;
7013;SDS011;3547;50.774;12.918;2024-03-08T04:37:14;22.70;;;12.03;;
7013;SDS011;3547;50.774;12.918;2024-03-08T04:39:43;24.43;;;13.97;;
7013;SDS011;3547;50.774;12.918;2024-03-08T04:42:09;27.93;;;14.80;;
7013;SDS011;3547;50.774;12.918;2024-03-08T04:44:36;21.73;;;13.27;;
7013;SDS011;3547;50.774;12.918;2024-03-08T04:47:21;21.97;;;12.67;;
7013;SDS011;3547;50.774;12.918;2024-03-08T04:49:48;23.20;;;14.20;;
7013;SDS011;3547;50.774;12.918;2024-03-08T04:52:14;23.40;;;13.53;;
7013;SDS011;3547;50.774;12.918;2024-03-08T04:54:40;24.47;;;14.47;;
7013;SDS011;3547;50.774;12.918;2024-03-08T04:57:06;25.60;;;14.67;;
7013;SDS011;3547;50.774;12.918;2024-03-08T04:59:33;22.03;;;13.10;;
7013;SDS011;3547;50.774;12.918;2024-03-08T05:01:59;21.97;;;13.80;;
7013;SDS011;3547;50.774;12.918;2024-03-08T05:04:25;29.73;;;15.40;;
7013;SDS011;3547;50.774;12.918;2024-03-08T05:06:51;23.87;;;14.07;;
7013;SDS011;3547;50.774;12.918;2024-03-08T05:09:17;24.03;;;14.57;;
7013;SDS011;3547;50.774;12.918;2024-03-08T05:11:44;24.67;;;13.50;;
7013;SDS011;3547;50.774;12.918;2024-03-08T05:14:12;28.93;;;14.53;;
7013;SDS011;3547;50.774;12.918;2024-03-08T05:16:48;24.33;;;14.20;;
7013;SDS011;3547;50.774;12.918;2024-03-08T05:19:17;23.80;;;13.63;;
7013;SDS011;3547;50.774;12.918;2024-03-08T05:21:45;25.87;;;13.80;;
7013;SDS011;3547;50.774;12.918;2024-03-08T05:24:21;24.60;;;13.87;;
7013;SDS011;3547;50.774;12.918;2024-03-08T05:26:47;23.07;;;13.97;;
7013;SDS011;3547;50.774;12.918;2024-03-08T05:29:13;25.03;;;13.40;;
7013;SDS011;3547;50.774;12.918;2024-03-08T05:31:46;25.63;;;15.00;;
7013;SDS011;3547;50.774;12.918;2024-03-08T05:34:18;27.47;;;15.70;;
7013;SDS011;3547;50.774;12.918;2024-03-08T05:36:50;26.93;;;13.70;;
7013;SDS011;3547;50.774;12.918;2024-03-08T05:39:17;23.37;;;13.33;;
7013;SDS011;3547;50.774;12.918;2024-03-08T05:41:44;23.63;;;13.70;;
7013;SDS011;3547;50.774;12.918;2024-03-08T05:44:11;23.93;;;13.63;;
7013;SDS011;3547;50.774;12.918;2024-03-08T05:46:38;25.47;;;14.17;;
7013;SDS011;3547;50.774;12.918;2024-03-08T05:49:05;25.43;;;13.87;;
7013;SDS011;3547;50.774;12.918;2024-03-08T05:51:36;26.10;;;14.20;;
7013;SDS011;3547;50.774;12.918;2024-03-08T05:54:04;25.47;;;14.57;;
7013;SDS011;3547;50.774;12.918;2024-03-08T05:56:32;24.70;;;14.80;;
7013;SDS011;3547;50.774;12.918;2024-03-08T05:58:58;25.83;;;14.40;;
7013;SDS011;3547;50.774;12.918;2024-03-08T06:01:25;26.70;;;15.87;;
7013;SDS011;3547;50.774;12.918;2024-03-08T06:03:52;26.97;;;15.47;;
7013;SDS011;3547;50.774;12.918;2024-03-08T06:06:21;26.93;;;14.73;;
7013;SDS011;3547;50.774;12.918;2024-03-08T06:08:51;26.50;;;16.07;;
7013;SDS011;3547;50.774;12.918;2024-03-08T06:11:18;26.77;;;15.37;;
7013;SDS011;3547;50.774;12.918;2024-03-08T06:13:46;25.23;;;15.07;;
7013;SDS011;3547;50.774;12.918;2024-03-08T06:16:12;29.33;;;15.73;;
7013;SDS011;3547;50.774;12.918;2024-03-08T06:18:38;23.57;;;13.90;;
7013;SDS011;3547;50.774;12.918;2024-03-08T06:21:07;26.40;;;15.57;;
7013;SDS011;3547;50.774;12.918;2024-03-08T06:23:42;23.97;;;15.67;;
7013;SDS011;3547;50.774;12.918;2024-03-08T06:26:08;24.37;;;15.23;;
7013;SDS011;3547;50.774;12.918;2024-03-08T06:28:34;23.67;;;14.63;;
7013;SDS011;3547;50.774;12.918;2024-03-08T06:31:01;23.70;;;14.83;;
7013;SDS011;3547;50.774;12.918;2024-03-08T06:33:28;27.90;;;15.63;;
7013;SDS011;3547;50.774;12.918;2024-03-08T06:35:54;27.83;;;15.83;;
7013;SDS011;3547;50.774;12.918;2024-03-08T06:38:24;23.50;;;14.77;;
7013;SDS011;3547;50.774;12.918;2024-03-08T06:40:50;25.93;;;15.97;;
7013;SDS011;3547;50.774;12.918;2024-03-08T06:43:17;25.50;;;15.17;;
7013;SDS011;3547;50.774;12.918;2024-03-08T06:45:44;23.03;;;13.60;;
7013;SDS011;3547;50.774;12.918;2024-03-08T06:48:18;27.83;;;15.43;;
7013;SDS011;3547;50.774;12.918;2024-03-08T06:50:45;28.10;;;15.30;;
7013;SDS011;3547;50.774;12.918;2024-03-08T06:53:12;25.23;;;14.10;;
7013;SDS011;3547;50.774;12.918;2024-03-08T06:55:39;20.50;;;13.63;;
7013;SDS011;3547;50.774;12.918;2024-03-08T06:58:06;28.40;;;15.47;;
7013;SDS011;3547;50.774;12.918;2024-03-08T07:00:32;28.53;;;15.70;;
7013;SDS011;3547;50.774;12.918;2024-03-08T07:02:59;27.00;;;14.50;;
7013;SDS011;3547;50.774;12.918;2024-03-08T07:05:28;24.83;;;13.43;;
7013;SDS011;3547;50.774;12.918;2024-03-08T07:07:55;26.63;;;15.03;;
7013;SDS011;3547;50.774;12.918;2024-03-08T07:10:24;25.23;;;15.17;;
7013;SDS011;3547;50.774;12.918;2024-03-08T07:12:51;22.67;;;14.83;;
7013;SDS011;3547;50.774;12.918;2024-03-08T07:15:17;26.30;;;13.70;;
7013;SDS011;3547;50.774;12.918;2024-03-08T07:17:45;26.10;;;14.23;;
7013;SDS011;3547;50.774;12.918;2024-03-08T07:20:12;23.07;;;13.57;;
7013;SDS011;3547;50.774;12.918;2024-03-08T07:22:41;21.53;;;12.80;;
7013;SDS011;3547;50.774;12.918;2024-03-08T07:25:08;23.50;;;13.23;;
7013;SDS011;3547;50.774;12.918;2024-03-08T07:27:53;24.27;;;13.63;;
7013;SDS011;3547;50.774;12.918;2024-03-08T07:30:20;27.13;;;14.90;;
7013;SDS011;3547;50.774;12.918;2024-03-08T07:33:10;25.13;;;13.33;;
7013;SDS011;3547;50.774;12.918;2024-03-08T07:35:37;21.43;;;12.20;;
7013;SDS011;3547;50.774;12.918;2024-03-08T07:38:04;15.87;;;8.97;;
7013;SDS011;3547;50.774;12.918;2024-03-08T07:40:31;26.33;;;13.10;;
7013;SDS011;3547;50.774;12.918;2024-03-08T07:43:00;20.20;;;11.47;;
7013;SDS011;3547;50.774;12.918;2024-03-08T07:45:27;24.63;;;13.10;;
7013;SDS011;3547;50.774;12.918;2024-03-08T07:47:53;22.67;;;12.87;;
7013;SDS011;3547;50.774;12.918;2024-03-08T07:50:21;19.63;;;11.47;;
7013;SDS011;3547;50.774;12.918;2024-03-08T07:52:50;21.90;;;11.87;;
7013;SDS011;3547;50.774;12.918;2024-03-08T07:55:16;20.77;;;12.80;;
7013;SDS011;3547;50.774;12.918;2024-03-08T07:57:52;17.33;;;12.20;;
7013;SDS011;3547;50.774;12.918;2024-03-08T08:00:18;20.60;;;12.10;;
7013;SDS011;3547;50.774;12.918;2024-03-08T08:02:44;20.23;;;11.43;;
7013;SDS011;3547;50.774;12.918;2024-03-08T08:05:15;17.37;;;11.20;;
7013;SDS011;3547;50.774;12.918;2024-03-08T08:07:44;20.47;;;11.70;;
7013;SDS011;3547;50.774;12.918;2024-03-08T08:10:12;19.43;;;10.47;;
7013;SDS011;3547;50.774;12.918;2024-03-08T08:12:44;18.13;;;10.50;;
7013;SDS011;3547;50.774;12.918;2024-03-08T08:15:11;16.27;;;10.23;;
7013;SDS011;3547;50.774;12.918;2024-03-08T08:17:38;17.03;;;10.17;;
7013;SDS011;3547;50.774;12.918;2024-03-08T08:20:04;16.57;;;10.03;;
7013;SDS011;3547;50.774;12.918;2024-03-08T08:22:31;19.33;;;10.17;;
7013;SDS011;3547;50.774;12.918;2024-03-08T08:24:58;19.03;;;10.33;;
7013;SDS011;3547;50.774;12.918;2024-03-08T08:27:26;18.43;;;10.20;;
7013;SDS011;3547;50.774;12.918;2024-03-08T08:29:53;19.10;;;11.97;;
7013;SDS011;3547;50.774;12.918;2024-03-08T08:32:19;20.10;;;10.57;;
7013;SDS011;3547;50.774;12.918;2024-03-08T08:34:45;20.57;;;11.00;;
7013;SDS011;3547;50.774;12.918;2024-03-08T08:37:11;19.20;;;10.77;;
7013;SDS011;3547;50.774;12.918;2024-03-08T08:39:37;16.40;;;9.87;;
7013;SDS011;3547;50.774;12.918;2024-03-08T08:42:04;19.30;;;10.90;;
7013;SDS011;3547;50.774;12.918;2024-03-08T08:44:30;12.13;;;8.83;;
7013;SDS011;3547;50.774;12.918;2024-03-08T08:46:57;20.40;;;10.23;;
7013;SDS011;3547;50.774;12.918;2024-03-08T08:49:25;15.00;;;9.23;;
7013;SDS011;3547;50.774;12.918;2024-03-08T08:51:52;16.47;;;9.47;;
7013;SDS011;3547;50.774;12.918;2024-03-08T08:54:18;17.70;;;9.63;;
7013;SDS011;3547;50.774;12.918;2024-03-08T08:56:46;15.50;;;8.90;;
7013;SDS011;3547;50.774;12.918;2024-03-08T08:59:13;14.30;;;9.37;;
7013;SDS011;3547;50.774;12.918;2024-03-08T09:01:39;13.37;;;9.13;;
7013;SDS011;3547;50.774;12.918;2024-03-08T09:04:05;15.30;;;9.00;;
7013;SDS011;3547;50.774;12.918;2024-03-08T09:06:33;14.30;;;8.97;;
7013;SDS011;3547;50.774;12.918;2024-03-08T09:08:59;12.30;;;7.67;;
7013;SDS011;3547;50.774;12.918;2024-03-08T09:11:25;12.70;;;7.37;;
7013;SDS011;3547;50.774;12.918;2024-03-08T09:13:51;13.10;;;7.70;;
7013;SDS011;3547;50.774;12.918;2024-03-08T09:16:18;14.83;;;8.70;;
7013;SDS011;3547;50.774;12.918;2024-03-08T09:18:45;13.90;;;8.10;;
7013;SDS011;3547;50.774;12.918;2024-03-08T09:21:15;16.73;;;8.07;;
7013;SDS011;3547;50.774;12.918;2024-03-08T09:23:42;12.60;;;8.00;;
7013;SDS011;3547;50.774;12.918;2024-03-08T09:26:10;10.70;;;7.10;;
7013;SDS011;3547;50.774;12.918;2024-03-08T09:28:38;18.83;;;8.97;;
7013;SDS011;3547;50.774;12.918;2024-03-08T09:31:07;16.07;;;8.23;;
7013;SDS011;3547;50.774;12.918;2024-03-08T09:33:33;12.70;;;8.30;;
7013;SDS011;3547;50.774;12.918;2024-03-08T09:36:00;14.97;;;8.00;;
7013;SDS011;3547;50.774;12.918;2024-03-08T09:38:26;12.33;;;7.57;;
7013;SDS011;3547;50.774;12.918;2024-03-08T09:40:52;12.27;;;7.90;;
7013;SDS011;3547;50.774;12.918;2024-03-08T09:43:18;13.20;;;7.40;;
7013;SDS011;3547;50.774;12.918;2024-03-08T09:45:45;16.10;;;8.30;;
7013;SDS011;3547;50.774;12.918;2024-03-08T09:48:15;13.17;;;7.90;;
7013;SDS011;3547;50.774;12.918;2024-03-08T09:50:44;13.50;;;8.10;;
7013;SDS011;3547;50.774;12.918;2024-03-08T09:53:11;11.70;;;7.50;;
7013;SDS011;3547;50.774;12.918;2024-03-08T09:55:38;10.37;;;6.77;;
7013;SDS011;3547;50.774;12.918;2024-03-08T09:58:11;13.87;;;8.60;;
7013;SDS011;3547;50.774;12.918;2024-03-08T10:00:53;12.77;;;7.60;;
7013;SDS011;3547;50.774;12.918;2024-03-08T10:03:20;14.27;;;7.73;;
7013;SDS011;3547;50.774;12.918;2024-03-08T10:05:46;11.77;;;7.60;;
7013;SDS011;3547;50.774;12.918;2024-03-08T10:08:12;14.13;;;8.23;;
7013;SDS011;3547;50.774;12.918;2024-03-08T10:10:39;10.83;;;7.10;;
7013;SDS011;3547;50.774;12.918;2024-03-08T10:13:09;16.73;;;8.30;;
7013;SDS011;3547;50.774;12.918;2024-03-08T10:15:36;9.50;;;6.83;;
7013;SDS011;3547;50.774;12.918;2024-03-08T10:18:04;14.03;;;7.90;;
7013;SDS011;3547;50.774;12.918;2024-03-08T10:20:30;11.43;;;6.43;;
7013;SDS011;3547;50.774;12.918;2024-03-08T10:23:09;12.60;;;6.37;;
7013;SDS011;3547;50.774;12.918;2024-03-08T10:25:43;12.63;;;6.50;;
7013;SDS011;3547;50.774;12.918;2024-03-08T10:28:10;11.73;;;6.70;;
7013;SDS011;3547;50.774;12.918;2024-03-08T10:30:36;13.50;;;7.47;;
7013;SDS011;3547;50.774;12.918;2024-03-08T10:33:03;9.87;;;6.67;;
7013;SDS011;3547;50.774;12.918;2024-03-08T10:35:30;9.53;;;6.03;;
7013;SDS011;3547;50.774;12.918;2024-03-08T10:37:57;14.67;;;7.07;;
7013;SDS011;3547;50.774;12.918;2024-03-08T10:40:28;11.20;;;6.77;;
7013;SDS011;3547;50.774;12.918;2024-03-08T10:42:55;11.27;;;6.93;;
7013;SDS011;3547;50.774;12.918;2024-03-08T10:48:14;10.43;;;6.63;;
7013;SDS011;3547;50.774;12.918;2024-03-08T10:50:55;13.43;;;7.10;;
7013;SDS011;3547;50.774;12.918;2024-03-08T10:53:26;11.70;;;6.87;;
7013;SDS011;3547;50.774;12.918;2024-03-08T10:55:53;10.00;;;6.63;;
7013;SDS011;3547;50.774;12.918;2024-03-08T10:58:22;10.60;;;6.67;;
7013;SDS011;3547;50.774;12.918;2024-03-08T11:00:54;11.73;;;7.17;;
7013;SDS011;3547;50.774;12.918;2024-03-08T11:06:14;11.13;;;7.53;;
7013;SDS011;3547;50.774;12.918;2024-03-08T11:08:48;11.90;;;7.23;;
7013;SDS011;3547;50.774;12.918;2024-03-08T11:11:31;8.03;;;6.33;;
7013;SDS011;3547;50.774;12.918;2024-03-08T11:14:00;13.10;;;7.20;;
7013;SDS011;3547;50.774;12.918;2024-03-08T11:18:54;10.97;;;7.10;;
7013;SDS011;3547;50.774;12.918;2024-03-08T11:21:30;13.07;;;7.57;;
7013;SDS011;3547;50.774;12.918;2024-03-08T11:24:06;11.00;;;6.80;;
7013;SDS011;3547;50.774;12.918;2024-03-08T11:26:41;10.83;;;7.13;;
7013;SDS011;3547;50.774;12.918;2024-03-08T11:34:32;10.33;;;6.90;;
7013;SDS011;3547;50.774;12.918;2024-03-08T11:36:58;10.00;;;7.00;;
7013;SDS011;3547;50.774;12.918;2024-03-08T11:39:25;12.53;;;7.60;;
7013;SDS011;3547;50.774;12.918;2024-03-08T11:41:51;12.57;;;6.73;;
7013;SDS011;3547;50.774;12.918;2024-03-08T11:44:19;12.40;;;6.27;;
7013;SDS011;3547;50.774;12.918;2024-03-08T11:46:45;11.97;;;6.70;;
7013;SDS011;3547;50.774;12.918;2024-03-08T11:49:14;9.03;;;6.40;;
7013;SDS011;3547;50.774;12.918;2024-03-08T11:51:40;9.13;;;6.50;;
7013;SDS011;3547;50.774;12.918;2024-03-08T11:54:11;11.00;;;6.80;;
7013;SDS011;3547;50.774;12.918;2024-03-08T11:56:41;9.47;;;6.30;;
7013;SDS011;3547;50.774;12.918;2024-03-08T11:59:12;13.17;;;7.50;;
7013;SDS011;3547;50.774;12.918;2024-03-08T12:01:39;8.73;;;6.43;;
7013;SDS011;3547;50.774;12.918;2024-03-08T12:04:05;10.33;;;7.00;;
7013;SDS011;3547;50.774;12.918;2024-03-08T12:06:38;9.33;;;6.43;;
7013;SDS011;3547;50.774;12.918;2024-03-08T12:09:12;10.47;;;6.60;;
7013;SDS011;3547;50.774;12.918;2024-03-08T12:11:38;9.03;;;5.97;;
7013;SDS011;3547;50.774;12.918;2024-03-08T12:14:05;10.43;;;6.63;;
7013;SDS011;3547;50.774;12.918;2024-03-08T12:16:32;9.67;;;6.40;;
7013;SDS011;3547;50.774;12.918;2024-03-08T12:19:02;10.77;;;6.73;;
7013;SDS011;3547;50.774;12.918;2024-03-08T12:21:32;9.23;;;5.77;;
7013;SDS011;3547;50.774;12.918;2024-03-08T12:24:05;9.20;;;6.00;;
7013;SDS011;3547;50.774;12.918;2024-03-08T12:26:38;9.20;;;5.63;;
7013;SDS011;3547;50.774;12.918;2024-03-08T12:31:59;10.90;;;6.87;;
7013;SDS011;3547;50.774;12.918;2024-03-08T12:34:26;10.17;;;6.30;;
7013;SDS011;3547;50.774;12.918;2024-03-08T12:36:54;8.10;;;5.60;;
7013;SDS011;3547;50.774;12.918;2024-03-08T12:39:21;9.60;;;6.30;;
7013;SDS011;3547;50.774;12.918;2024-03-08T12:44:54;10.80;;;6.47;;
7013;SDS011;3547;50.774;12.918;2024-03-08T12:47:23;11.03;;;6.60;;
7013;SDS011;3547;50.774;12.918;2024-03-08T12:49:50;8.83;;;6.33;;
7013;SDS011;3547;50.774;12.918;2024-03-08T12:52:24;10.73;;;6.00;;
7013;SDS011;3547;50.774;12.918;2024-03-08T12:54:56;11.40;;;6.30;;
7013;SDS011;3547;50.774;12.918;2024-03-08T12:57:23;7.80;;;5.27;;
7013;SDS011;3547;50.774;12.918;2024-03-08T12:59:52;8.47;;;5.70;;
7013;SDS011;3547;50.774;12.918;2024-03-08T13:02:19;8.00;;;6.17;;
7013;SDS011;3547;50.774;12.918;2024-03-08T13:04:46;8.17;;;5.90;;
7013;SDS011;3547;50.774;12.918;2024-03-08T13:07:24;10.73;;;6.10;;
7013;SDS011;3547;50.774;12.918;2024-03-08T13:09:54;7.77;;;5.87;;
7013;SDS011;3547;50.774;12.918;2024-03-08T13:12:25;10.17;;;6.67;;
7013;SDS011;3547;50.774;12.918;2024-03-08T13:14:54;10.50;;;6.57;;
7013;SDS011;3547;50.774;12.918;2024-03-08T13:17:22;10.93;;;6.60;;
7013;SDS011;3547;50.774;12.918;2024-03-08T13:19:48;11.30;;;7.27;;
7013;SDS011;3547;50.774;12.918;2024-03-08T13:22:14;14.17;;;8.33;;
7013;SDS011;3547;50.774;12.918;2024-03-08T13:24:42;13.60;;;7.50;;
7013;SDS011;3547;50.774;12.918;2024-03-08T13:27:10;9.23;;;6.57;;
7013;SDS011;3547;50.774;12.918;2024-03-08T13:29:46;13.00;;;7.80;;
7013;SDS011;3547;50.774;12.918;2024-03-08T13:32:16;12.53;;;7.07;;
7013;SDS011;3547;50.774;12.918;2024-03-08T13:34:43;11.53;;;7.23;;
7013;SDS011;3547;50.774;12.918;2024-03-08T13:37:19;9.50;;;6.97;;
7013;SDS011;3547;50.774;12.918;2024-03-08T13:39:45;8.67;;;6.23;;
7013;SDS011;3547;50.774;12.918;2024-03-08T13:42:15;11.93;;;6.67;;
7013;SDS011;3547;50.774;12.918;2024-03-08T13:44:45;8.77;;;6.30;;
7013;SDS011;3547;50.774;12.918;2024-03-08T13:47:15;9.43;;;6.50;;
7013;SDS011;3547;50.774;12.918;2024-03-08T13:49:42;9.40;;;6.10;;
7013;SDS011;3547;50.774;12.918;2024-03-08T13:52:12;10.63;;;6.70;;
7013;SDS011;3547;50.774;12.918;2024-03-08T13:54:40;11.03;;;7.27;;
7013;SDS011;3547;50.774;12.918;2024-03-08T13:57:06;11.20;;;7.37;;
7013;SDS011;3547;50.774;12.918;2024-03-08T13:59:33;11.03;;;6.93;;
7013;SDS011;3547;50.774;12.918;2024-03-08T14:02:03;8.47;;;6.70;;
7013;SDS011;3547;50.774;12.918;2024-03-08T14:04:29;10.73;;;6.67;;
7013;SDS011;3547;50.774;12.918;2024-03-08T14:06:56;8.73;;;6.23;;
7013;SDS011;3547;50.774;12.918;2024-03-08T14:09:25;11.27;;;6.67;;
7013;SDS011;3547;50.774;12.918;2024-03-08T14:11:51;10.07;;;7.27;;
7013;SDS011;3547;50.774;12.918;2024-03-08T14:14:35;11.10;;;7.10;;
7013;SDS011;3547;50.774;12.918;2024-03-08T14:17:01;11.67;;;7.43;;
7013;SDS011;3547;50.774;12.918;2024-03-08T14:19:28;9.70;;;6.60;;
7013;SDS011;3547;50.774;12.918;2024-03-08T14:21:56;12.27;;;7.50;;
7013;SDS011;3547;50.774;12.918;2024-03-08T14:24:24;11.10;;;6.77;;
7013;SDS011;3547;50.774;12.918;2024-03-08T14:26:50;12.70;;;7.77;;
7013;SDS011;3547;50.774;12.918;2024-03-08T14:29:17;15.37;;;7.53;;
7013;SDS011;3547;50.774;12.918;2024-03-08T14:31:46;9.43;;;7.00;;
7013;SDS011;3547;50.774;12.918;2024-03-08T14:34:12;13.77;;;8.43;;
7013;SDS011;3547;50.774;12.918;2024-03-08T14:36:40;12.47;;;7.73;;
7013;SDS011;3547;50.774;12.918;2024-03-08T14:39:06;9.93;;;7.40;;
7013;SDS011;3547;50.774;12.918;2024-03-08T14:41:33;9.80;;;7.43;;
7013;SDS011;3547;50.774;12.918;2024-03-08T14:43:59;10.67;;;7.93;;
7013;SDS011;3547;50.774;12.918;2024-03-08T14:46:25;10.73;;;7.73;;
7013;SDS011;3547;50.774;12.918;2024-03-08T14:48:52;13.70;;;8.10;;
7013;SDS011;3547;50.774;12.918;2024-03-08T14:51:19;11.73;;;7.87;;
7013;SDS011;3547;50.774;12.918;2024-03-08T14:53:48;14.27;;;8.40;;
7013;SDS011;3547;50.774;12.918;2024-03-08T14:56:15;11.03;;;7.57;;
7013;SDS011;3547;50.774;12.918;2024-03-08T14:58:45;11.93;;;7.47;;
7013;SDS011;3547;50.774;12.918;2024-03-08T15:01:18;12.83;;;7.90;;
7013;SDS011;3547;50.774;12.918;2024-03-08T15:03:50;10.03;;;7.40;;
7013;SDS011;3547;50.774;12.918;2024-03-08T15:06:16;8.70;;;6.47;;